sensor_id;sensor_type;location;lat;lon;timestamp;temperature;humidity
37782;DHT22;23621;50.878;4.584;2022-10-23T00:01:29;21.00;77.80
37782;DHT22;23621;50.878;4.584;2022-10-23T00:04:02;20.90;77.80
37782;DHT22;23621;50.878;4.584;2022-10-23T00:06:31;20.90;77.80
37782;DHT22;23621;50.878;4.584;2022-10-23T00:08:58;20.90;77.80
37782;DHT22;23621;50.878;4.584;2022-10-23T00:11:28;20.90;77.80
37782;DHT22;23621;50.878;4.584;2022-10-23T00:14:00;20.90;77.90
37782;DHT22;23621;50.878;4.584;2022-10-23T00:16:27;20.90;78.10
37782;DHT22;23621;50.878;4.584;2022-10-23T00:18:54;20.80;77.90
37782;DHT22;23621;50.878;4.584;2022-10-23T00:21:22;20.90;78.10
37782;DHT22;23621;50.878;4.584;2022-10-23T00:23:49;20.80;78.10
37782;DHT22;23621;50.878;4.584;2022-10-23T00:26:16;20.80;78.10
37782;DHT22;23621;50.878;4.584;2022-10-23T00:28:45;20.80;78.20
37782;DHT22;23621;50.878;4.584;2022-10-23T00:31:12;20.70;78.20
37782;DHT22;23621;50.878;4.584;2022-10-23T00:33:40;20.70;78.20
37782;DHT22;23621;50.878;4.584;2022-10-23T00:36:09;20.70;78.30
37782;DHT22;23621;50.878;4.584;2022-10-23T00:38:36;20.70;78.30
37782;DHT22;23621;50.878;4.584;2022-10-23T00:41:05;20.70;78.40
37782;DHT22;23621;50.878;4.584;2022-10-23T00:43:33;20.60;78.40
37782;DHT22;23621;50.878;4.584;2022-10-23T00:46:00;20.60;78.50
37782;DHT22;23621;50.878;4.584;2022-10-23T00:48:28;20.60;78.50
37782;DHT22;23621;50.878;4.584;2022-10-23T00:50:55;20.60;78.50
37782;DHT22;23621;50.878;4.584;2022-10-23T00:53:22;20.60;78.60
37782;DHT22;23621;50.878;4.584;2022-10-23T00:55:50;20.60;78.60
37782;DHT22;23621;50.878;4.584;2022-10-23T00:58:20;20.60;78.70
37782;DHT22;23621;50.878;4.584;2022-10-23T01:00:54;20.60;78.90
37782;DHT22;23621;50.878;4.584;2022-10-23T01:03:26;20.60;78.90
37782;DHT22;23621;50.878;4.584;2022-10-23T01:06:02;20.60;78.90
37782;DHT22;23621;50.878;4.584;2022-10-23T01:11:04;20.60;79.00
37782;DHT22;23621;50.878;4.584;2022-10-23T01:22:46;20.60;79.10
37782;DHT22;23621;50.878;4.584;2022-10-23T01:28:43;20.60;79.20
37782;DHT22;23621;50.878;4.584;2022-10-23T01:31:16;20.60;79.20
37782;DHT22;23621;50.878;4.584;2022-10-23T01:33:47;20.50;79.10
37782;DHT22;23621;50.878;4.584;2022-10-23T01:36:16;20.60;79.30
37782;DHT22;23621;50.878;4.584;2022-10-23T01:39:01;20.60;79.30
37782;DHT22;23621;50.878;4.584;2022-10-23T01:41:46;20.60;79.50
37782;DHT22;23621;50.878;4.584;2022-10-23T01:44:28;20.60;79.50
37782;DHT22;23621;50.878;4.584;2022-10-23T01:46:58;20.60;79.50
37782;DHT22;23621;50.878;4.584;2022-10-23T01:49:27;20.60;79.50
37782;DHT22;23621;50.878;4.584;2022-10-23T01:51:57;20.60;79.50
37782;DHT22;23621;50.878;4.584;2022-10-23T01:54:28;20.60;79.50
37782;DHT22;23621;50.878;4.584;2022-10-23T01:56:57;20.60;79.50
37782;DHT22;23621;50.878;4.584;2022-10-23T01:59:37;20.60;79.40
37782;DHT22;23621;50.878;4.584;2022-10-23T02:02:05;20.60;80.20
37782;DHT22;23621;50.878;4.584;2022-10-23T02:04:48;20.60;79.50
37782;DHT22;23621;50.878;4.584;2022-10-23T02:07:15;20.60;79.50
37782;DHT22;23621;50.878;4.584;2022-10-23T02:09:42;20.60;79.50
37782;DHT22;23621;50.878;4.584;2022-10-23T02:12:14;20.60;79.50
37782;DHT22;23621;50.878;4.584;2022-10-23T02:14:57;20.60;79.60
37782;DHT22;23621;50.878;4.584;2022-10-23T02:22:59;20.50;79.70
37782;DHT22;23621;50.878;4.584;2022-10-23T02:25:40;20.50;79.80
37782;DHT22;23621;50.878;4.584;2022-10-23T02:28:12;20.50;79.80
37782;DHT22;23621;50.878;4.584;2022-10-23T02:30:44;20.50;80.00
37782;DHT22;23621;50.878;4.584;2022-10-23T02:33:12;20.50;79.90
37782;DHT22;23621;50.878;4.584;2022-10-23T02:35:40;20.50;80.00
37782;DHT22;23621;50.878;4.584;2022-10-23T02:38:29;20.60;80.00
37782;DHT22;23621;50.878;4.584;2022-10-23T02:50:08;20.50;80.00
37782;DHT22;23621;50.878;4.584;2022-10-23T02:55:45;20.50;80.10
37782;DHT22;23621;50.878;4.584;2022-10-23T02:58:39;20.40;80.10
37782;DHT22;23621;50.878;4.584;2022-10-23T03:01:12;20.40;80.20
37782;DHT22;23621;50.878;4.584;2022-10-23T03:03:43;20.40;80.20
37782;DHT22;23621;50.878;4.584;2022-10-23T03:06:11;20.40;80.20
37782;DHT22;23621;50.878;4.584;2022-10-23T03:08:57;20.40;80.20
37782;DHT22;23621;50.878;4.584;2022-10-23T03:11:24;20.40;80.30
37782;DHT22;23621;50.878;4.584;2022-10-23T03:13:51;20.40;80.10
37782;DHT22;23621;50.878;4.584;2022-10-23T03:16:18;20.50;80.20
37782;DHT22;23621;50.878;4.584;2022-10-23T03:18:45;20.50;80.20
37782;DHT22;23621;50.878;4.584;2022-10-23T03:21:12;20.40;80.10
37782;DHT22;23621;50.878;4.584;2022-10-23T03:23:38;20.50;80.20
37782;DHT22;23621;50.878;4.584;2022-10-23T03:26:05;20.40;80.10
37782;DHT22;23621;50.878;4.584;2022-10-23T03:28:32;20.50;80.20
37782;DHT22;23621;50.878;4.584;2022-10-23T03:31:01;20.50;80.30
37782;DHT22;23621;50.878;4.584;2022-10-23T03:33:29;20.50;80.30
37782;DHT22;23621;50.878;4.584;2022-10-23T03:35:56;20.50;80.40
37782;DHT22;23621;50.878;4.584;2022-10-23T03:38:23;20.50;80.40
37782;DHT22;23621;50.878;4.584;2022-10-23T03:40:50;20.50;80.40
37782;DHT22;23621;50.878;4.584;2022-10-23T03:43:17;20.50;80.40
37782;DHT22;23621;50.878;4.584;2022-10-23T03:45:44;20.60;80.50
37782;DHT22;23621;50.878;4.584;2022-10-23T03:48:10;20.60;80.40
37782;DHT22;23621;50.878;4.584;2022-10-23T03:50:37;20.60;80.40
37782;DHT22;23621;50.878;4.584;2022-10-23T03:53:04;20.60;80.40
37782;DHT22;23621;50.878;4.584;2022-10-23T03:55:31;20.60;80.40
37782;DHT22;23621;50.878;4.584;2022-10-23T03:57:58;20.60;80.40
37782;DHT22;23621;50.878;4.584;2022-10-23T04:00:24;20.60;80.40
37782;DHT22;23621;50.878;4.584;2022-10-23T04:02:51;20.60;80.40
37782;DHT22;23621;50.878;4.584;2022-10-23T04:05:18;20.60;80.40
37782;DHT22;23621;50.878;4.584;2022-10-23T04:07:45;20.60;80.40
37782;DHT22;23621;50.878;4.584;2022-10-23T04:10:11;20.60;80.50
37782;DHT22;23621;50.878;4.584;2022-10-23T04:12:38;20.60;80.60
37782;DHT22;23621;50.878;4.584;2022-10-23T04:15:05;20.50;80.50
37782;DHT22;23621;50.878;4.584;2022-10-23T04:17:32;20.60;80.70
37782;DHT22;23621;50.878;4.584;2022-10-23T04:19:59;20.60;80.70
37782;DHT22;23621;50.878;4.584;2022-10-23T04:22:26;20.50;80.60
37782;DHT22;23621;50.878;4.584;2022-10-23T04:24:54;20.50;80.60
37782;DHT22;23621;50.878;4.584;2022-10-23T04:27:21;20.50;80.60
37782;DHT22;23621;50.878;4.584;2022-10-23T04:29:48;20.50;80.60
37782;DHT22;23621;50.878;4.584;2022-10-23T04:32:15;20.50;80.60
37782;DHT22;23621;50.878;4.584;2022-10-23T04:34:42;20.50;80.70
37782;DHT22;23621;50.878;4.584;2022-10-23T04:37:09;20.50;80.70
37782;DHT22;23621;50.878;4.584;2022-10-23T04:39:35;20.40;80.60
37782;DHT22;23621;50.878;4.584;2022-10-23T04:42:02;20.50;80.70
37782;DHT22;23621;50.878;4.584;2022-10-23T04:44:29;20.40;80.70
37782;DHT22;23621;50.878;4.584;2022-10-23T04:46:56;20.50;80.80
37782;DHT22;23621;50.878;4.584;2022-10-23T04:49:23;20.50;80.80
37782;DHT22;23621;50.878;4.584;2022-10-23T04:51:49;20.50;80.80
37782;DHT22;23621;50.878;4.584;2022-10-23T04:54:16;20.50;80.80
37782;DHT22;23621;50.878;4.584;2022-10-23T04:56:43;20.50;80.90
37782;DHT22;23621;50.878;4.584;2022-10-23T04:59:10;20.50;80.90
37782;DHT22;23621;50.878;4.584;2022-10-23T05:01:36;20.50;80.90
37782;DHT22;23621;50.878;4.584;2022-10-23T05:04:03;20.50;81.00
37782;DHT22;23621;50.878;4.584;2022-10-23T05:06:32;20.50;81.00
37782;DHT22;23621;50.878;4.584;2022-10-23T05:08:59;20.50;81.00
37782;DHT22;23621;50.878;4.584;2022-10-23T05:11:26;20.60;81.10
37782;DHT22;23621;50.878;4.584;2022-10-23T05:13:53;20.60;81.10
37782;DHT22;23621;50.878;4.584;2022-10-23T05:16:36;20.60;81.20
37782;DHT22;23621;50.878;4.584;2022-10-23T05:19:06;20.60;81.30
37782;DHT22;23621;50.878;4.584;2022-10-23T05:21:35;20.60;81.30
37782;DHT22;23621;50.878;4.584;2022-10-23T05:24:02;20.60;81.30
37782;DHT22;23621;50.878;4.584;2022-10-23T05:26:32;20.60;81.30
37782;DHT22;23621;50.878;4.584;2022-10-23T05:28:59;20.60;81.30
37782;DHT22;23621;50.878;4.584;2022-10-23T05:31:26;20.60;81.30
37782;DHT22;23621;50.878;4.584;2022-10-23T05:33:54;20.60;81.40
37782;DHT22;23621;50.878;4.584;2022-10-23T05:36:22;20.60;81.40
37782;DHT22;23621;50.878;4.584;2022-10-23T05:38:50;20.60;81.40
37782;DHT22;23621;50.878;4.584;2022-10-23T05:41:17;20.60;81.40
37782;DHT22;23621;50.878;4.584;2022-10-23T05:43:44;20.70;81.50
37782;DHT22;23621;50.878;4.584;2022-10-23T05:46:11;20.70;81.50
37782;DHT22;23621;50.878;4.584;2022-10-23T05:48:38;20.70;81.50
37782;DHT22;23621;50.878;4.584;2022-10-23T05:51:07;20.70;81.50
37782;DHT22;23621;50.878;4.584;2022-10-23T05:53:34;20.70;81.50
37782;DHT22;23621;50.878;4.584;2022-10-23T05:56:08;20.70;81.50
37782;DHT22;23621;50.878;4.584;2022-10-23T05:58:35;20.80;81.60
37782;DHT22;23621;50.878;4.584;2022-10-23T06:01:09;20.70;81.40
37782;DHT22;23621;50.878;4.584;2022-10-23T06:03:37;20.80;81.50
37782;DHT22;23621;50.878;4.584;2022-10-23T06:06:08;20.80;81.50
37782;DHT22;23621;50.878;4.584;2022-10-23T06:08:34;20.80;81.40
37782;DHT22;23621;50.878;4.584;2022-10-23T06:11:08;20.80;81.30
37782;DHT22;23621;50.878;4.584;2022-10-23T06:13:36;20.90;81.40
37782;DHT22;23621;50.878;4.584;2022-10-23T06:16:17;20.80;81.30
37782;DHT22;23621;50.878;4.584;2022-10-23T06:18:45;20.80;81.30
37782;DHT22;23621;50.878;4.584;2022-10-23T06:21:12;20.80;81.20
37782;DHT22;23621;50.878;4.584;2022-10-23T06:23:40;20.80;81.20
37782;DHT22;23621;50.878;4.584;2022-10-23T06:26:08;20.80;81.20
37782;DHT22;23621;50.878;4.584;2022-10-23T06:28:35;20.80;81.30
37782;DHT22;23621;50.878;4.584;2022-10-23T06:31:11;20.80;81.30
37782;DHT22;23621;50.878;4.584;2022-10-23T06:33:39;20.80;81.30
37782;DHT22;23621;50.878;4.584;2022-10-23T06:36:06;20.70;81.20
37782;DHT22;23621;50.878;4.584;2022-10-23T06:38:36;20.70;81.10
37782;DHT22;23621;50.878;4.584;2022-10-23T06:41:10;20.70;81.10
37782;DHT22;23621;50.878;4.584;2022-10-23T06:43:38;20.70;81.10
37782;DHT22;23621;50.878;4.584;2022-10-23T06:46:05;20.70;81.10
37782;DHT22;23621;50.878;4.584;2022-10-23T06:48:32;20.70;81.00
37782;DHT22;23621;50.878;4.584;2022-10-23T06:51:04;20.70;81.10
37782;DHT22;23621;50.878;4.584;2022-10-23T06:53:31;20.80;81.20
37782;DHT22;23621;50.878;4.584;2022-10-23T06:55:59;20.80;81.10
37782;DHT22;23621;50.878;4.584;2022-10-23T06:58:26;20.80;81.10
37782;DHT22;23621;50.878;4.584;2022-10-23T07:00:53;20.80;81.10
37782;DHT22;23621;50.878;4.584;2022-10-23T07:03:20;20.90;81.10
37782;DHT22;23621;50.878;4.584;2022-10-23T07:05:47;20.90;81.00
37782;DHT22;23621;50.878;4.584;2022-10-23T07:08:14;20.90;81.00
37782;DHT22;23621;50.878;4.584;2022-10-23T07:10:42;21.00;81.10
37782;DHT22;23621;50.878;4.584;2022-10-23T07:13:10;21.00;81.10
37782;DHT22;23621;50.878;4.584;2022-10-23T07:15:38;21.00;81.00
37782;DHT22;23621;50.878;4.584;2022-10-23T07:18:05;21.10;81.10
37782;DHT22;23621;50.878;4.584;2022-10-23T07:20:32;21.10;81.00
37782;DHT22;23621;50.878;4.584;2022-10-23T07:22:59;21.10;80.90
37782;DHT22;23621;50.878;4.584;2022-10-23T07:25:26;21.10;80.90
37782;DHT22;23621;50.878;4.584;2022-10-23T07:27:53;21.10;81.00
37782;DHT22;23621;50.878;4.584;2022-10-23T07:30:24;21.20;81.10
37782;DHT22;23621;50.878;4.584;2022-10-23T07:32:51;21.20;81.10
37782;DHT22;23621;50.878;4.584;2022-10-23T07:35:18;21.20;81.10
37782;DHT22;23621;50.878;4.584;2022-10-23T07:37:44;21.30;81.20
37782;DHT22;23621;50.878;4.584;2022-10-23T07:40:11;21.30;81.10
37782;DHT22;23621;50.878;4.584;2022-10-23T07:42:38;21.40;81.20
37782;DHT22;23621;50.878;4.584;2022-10-23T07:45:06;21.40;81.20
37782;DHT22;23621;50.878;4.584;2022-10-23T07:47:34;21.40;81.20
37782;DHT22;23621;50.878;4.584;2022-10-23T07:50:01;21.40;81.10
37782;DHT22;23621;50.878;4.584;2022-10-23T07:52:27;21.40;81.10
37782;DHT22;23621;50.878;4.584;2022-10-23T07:55:00;21.50;81.20
37782;DHT22;23621;50.878;4.584;2022-10-23T07:57:27;21.50;81.30
37782;DHT22;23621;50.878;4.584;2022-10-23T07:59:54;21.50;81.30
37782;DHT22;23621;50.878;4.584;2022-10-23T08:02:21;21.50;81.30
37782;DHT22;23621;50.878;4.584;2022-10-23T08:04:48;21.50;81.30
37782;DHT22;23621;50.878;4.584;2022-10-23T08:07:15;21.50;81.30
37782;DHT22;23621;50.878;4.584;2022-10-23T08:09:42;21.50;81.30
37782;DHT22;23621;50.878;4.584;2022-10-23T08:12:09;21.50;81.30
37782;DHT22;23621;50.878;4.584;2022-10-23T08:14:36;21.50;81.30
37782;DHT22;23621;50.878;4.584;2022-10-23T08:17:02;21.50;81.30
37782;DHT22;23621;50.878;4.584;2022-10-23T08:19:31;21.50;81.30
37782;DHT22;23621;50.878;4.584;2022-10-23T08:21:58;21.50;81.30
37782;DHT22;23621;50.878;4.584;2022-10-23T08:24:24;21.60;81.40
37782;DHT22;23621;50.878;4.584;2022-10-23T08:26:51;21.50;81.30
37782;DHT22;23621;50.878;4.584;2022-10-23T08:29:18;21.60;81.40
37782;DHT22;23621;50.878;4.584;2022-10-23T08:31:45;21.60;81.40
37782;DHT22;23621;50.878;4.584;2022-10-23T08:34:12;21.60;81.40
37782;DHT22;23621;50.878;4.584;2022-10-23T08:36:39;21.60;81.40
37782;DHT22;23621;50.878;4.584;2022-10-23T08:39:06;21.70;81.40
37782;DHT22;23621;50.878;4.584;2022-10-23T08:42:02;21.70;81.50
37782;DHT22;23621;50.878;4.584;2022-10-23T08:44:39;21.70;81.40
37782;DHT22;23621;50.878;4.584;2022-10-23T08:47:21;21.70;81.50
37782;DHT22;23621;50.878;4.584;2022-10-23T08:49:54;21.70;81.40
37782;DHT22;23621;50.878;4.584;2022-10-23T08:52:42;21.70;81.40
37782;DHT22;23621;50.878;4.584;2022-10-23T08:55:22;21.80;81.50
37782;DHT22;23621;50.878;4.584;2022-10-23T08:58:17;21.80;81.40
37782;DHT22;23621;50.878;4.584;2022-10-23T09:00:49;21.80;81.40
37782;DHT22;23621;50.878;4.584;2022-10-23T09:03:17;21.80;81.40
37782;DHT22;23621;50.878;4.584;2022-10-23T09:06:08;21.80;81.40
37782;DHT22;23621;50.878;4.584;2022-10-23T09:11:36;21.90;81.50
37782;DHT22;23621;50.878;4.584;2022-10-23T09:24:42;20.80;82.00
37782;DHT22;23621;50.878;4.584;2022-10-23T09:27:14;20.50;84.30
37782;DHT22;23621;50.878;4.584;2022-10-23T09:29:48;20.90;84.30
37782;DHT22;23621;50.878;4.584;2022-10-23T09:32:15;21.30;83.60
37782;DHT22;23621;50.878;4.584;2022-10-23T09:34:52;21.50;83.00
37782;DHT22;23621;50.878;4.584;2022-10-23T09:37:24;21.70;82.70
37782;DHT22;23621;50.878;4.584;2022-10-23T09:42:59;22.00;82.40
37782;DHT22;23621;50.878;4.584;2022-10-23T09:45:32;22.00;82.30
37782;DHT22;23621;50.878;4.584;2022-10-23T09:48:14;22.10;82.30
37782;DHT22;23621;50.878;4.584;2022-10-23T09:50:59;22.20;82.40
37782;DHT22;23621;50.878;4.584;2022-10-23T09:56:26;22.30;82.30
37782;DHT22;23621;50.878;4.584;2022-10-23T09:59:00;22.40;82.30
37782;DHT22;23621;50.878;4.584;2022-10-23T10:01:31;22.40;82.20
37782;DHT22;23621;50.878;4.584;2022-10-23T10:03:58;22.50;82.30
37782;DHT22;23621;50.878;4.584;2022-10-23T10:06:27;22.50;82.30
37782;DHT22;23621;50.878;4.584;2022-10-23T10:08:58;22.60;82.40
37782;DHT22;23621;50.878;4.584;2022-10-23T10:17:42;22.80;82.20
37782;DHT22;23621;50.878;4.584;2022-10-23T10:20:23;22.90;82.20
37782;DHT22;23621;50.878;4.584;2022-10-23T10:22:57;22.90;82.10
37782;DHT22;23621;50.878;4.584;2022-10-23T10:28:20;23.00;82.00
37782;DHT22;23621;50.878;4.584;2022-10-23T10:31:17;23.00;81.90
37782;DHT22;23621;50.878;4.584;2022-10-23T10:34:11;23.00;81.80
37782;DHT22;23621;50.878;4.584;2022-10-23T10:36:52;23.10;81.80
37782;DHT22;23621;50.878;4.584;2022-10-23T10:41:57;23.10;81.70
37782;DHT22;23621;50.878;4.584;2022-10-23T10:44:49;23.10;81.70
37782;DHT22;23621;50.878;4.584;2022-10-23T10:50:07;23.20;81.80
37782;DHT22;23621;50.878;4.584;2022-10-23T10:53:33;23.20;81.70
37782;DHT22;23621;50.878;4.584;2022-10-23T10:55:54;23.30;81.60
37782;DHT22;23621;50.878;4.584;2022-10-23T11:01:00;23.40;81.60
37782;DHT22;23621;50.878;4.584;2022-10-23T11:03:35;23.40;81.70
37782;DHT22;23621;50.878;4.584;2022-10-23T11:06:12;23.50;81.70
37782;DHT22;23621;50.878;4.584;2022-10-23T11:08:41;23.50;81.60
37782;DHT22;23621;50.878;4.584;2022-10-23T11:11:34;23.50;81.40
37782;DHT22;23621;50.878;4.584;2022-10-23T11:14:02;23.60;81.40
37782;DHT22;23621;50.878;4.584;2022-10-23T11:16:36;23.60;81.30
37782;DHT22;23621;50.878;4.584;2022-10-23T11:27:45;23.70;80.90
37782;DHT22;23621;50.878;4.584;2022-10-23T11:30:34;23.70;80.80
37782;DHT22;23621;50.878;4.584;2022-10-23T11:36:04;23.80;80.70
37782;DHT22;23621;50.878;4.584;2022-10-23T11:38:38;23.90;80.70
37782;DHT22;23621;50.878;4.584;2022-10-23T11:41:19;23.90;80.70
37782;DHT22;23621;50.878;4.584;2022-10-23T11:43:53;23.90;80.60
37782;DHT22;23621;50.878;4.584;2022-10-23T11:46:37;24.00;80.60
37782;DHT22;23621;50.878;4.584;2022-10-23T11:49:17;24.10;80.70
37782;DHT22;23621;50.878;4.584;2022-10-23T11:51:45;24.10;80.60
37782;DHT22;23621;50.878;4.584;2022-10-23T11:54:19;24.10;80.60
37782;DHT22;23621;50.878;4.584;2022-10-23T12:02:36;24.20;80.50
37782;DHT22;23621;50.878;4.584;2022-10-23T12:05:34;24.30;80.60
37782;DHT22;23621;50.878;4.584;2022-10-23T12:08:05;24.30;80.60
37782;DHT22;23621;50.878;4.584;2022-10-23T12:10:35;24.40;80.60
37782;DHT22;23621;50.878;4.584;2022-10-23T12:15:57;24.50;80.40
37782;DHT22;23621;50.878;4.584;2022-10-23T12:18:26;24.50;80.30
37782;DHT22;23621;50.878;4.584;2022-10-23T12:21:00;24.60;80.30
37782;DHT22;23621;50.878;4.584;2022-10-23T12:26:17;24.60;80.20
37782;DHT22;23621;50.878;4.584;2022-10-23T12:31:54;24.60;80.00
37782;DHT22;23621;50.878;4.584;2022-10-23T12:37:51;24.60;79.80
37782;DHT22;23621;50.878;4.584;2022-10-23T12:40:21;24.70;80.10
37782;DHT22;23621;50.878;4.584;2022-10-23T12:42:57;24.70;80.10
37782;DHT22;23621;50.878;4.584;2022-10-23T12:45:37;24.80;80.10
37782;DHT22;23621;50.878;4.584;2022-10-23T12:48:05;24.80;80.00
37782;DHT22;23621;50.878;4.584;2022-10-23T12:50:33;24.80;79.90
37782;DHT22;23621;50.878;4.584;2022-10-23T12:53:03;24.80;79.80
37782;DHT22;23621;50.878;4.584;2022-10-23T12:58:34;24.90;79.70
37782;DHT22;23621;50.878;4.584;2022-10-23T13:01:05;25.00;79.60
37782;DHT22;23621;50.878;4.584;2022-10-23T13:03:33;25.00;79.60
37782;DHT22;23621;50.878;4.584;2022-10-23T13:06:01;25.00;79.50
37782;DHT22;23621;50.878;4.584;2022-10-23T13:08:40;25.00;79.50
37782;DHT22;23621;50.878;4.584;2022-10-23T13:11:13;25.00;79.20
37782;DHT22;23621;50.878;4.584;2022-10-23T13:13:41;25.10;79.20
37782;DHT22;23621;50.878;4.584;2022-10-23T13:16:17;25.10;79.10
37782;DHT22;23621;50.878;4.584;2022-10-23T13:18:44;25.20;79.20
37782;DHT22;23621;50.878;4.584;2022-10-23T13:21:37;25.20;79.10
37782;DHT22;23621;50.878;4.584;2022-10-23T13:24:04;25.20;78.80
37782;DHT22;23621;50.878;4.584;2022-10-23T13:26:37;25.20;78.90
37782;DHT22;23621;50.878;4.584;2022-10-23T13:29:32;25.20;78.90
37782;DHT22;23621;50.878;4.584;2022-10-23T13:32:33;25.30;79.00
37782;DHT22;23621;50.878;4.584;2022-10-23T13:34:59;25.30;78.80
37782;DHT22;23621;50.878;4.584;2022-10-23T13:37:47;25.20;78.70
37782;DHT22;23621;50.878;4.584;2022-10-23T13:40:23;25.30;78.90
37782;DHT22;23621;50.878;4.584;2022-10-23T13:42:52;25.30;79.00
37782;DHT22;23621;50.878;4.584;2022-10-23T13:45:22;25.20;78.90
37782;DHT22;23621;50.878;4.584;2022-10-23T13:47:50;25.30;78.90
37782;DHT22;23621;50.878;4.584;2022-10-23T13:50:18;25.20;78.70
37782;DHT22;23621;50.878;4.584;2022-10-23T13:52:45;25.20;78.70
37782;DHT22;23621;50.878;4.584;2022-10-23T13:55:25;25.20;78.80
37782;DHT22;23621;50.878;4.584;2022-10-23T13:57:52;25.20;78.90
37782;DHT22;23621;50.878;4.584;2022-10-23T14:00:19;25.20;78.80
37782;DHT22;23621;50.878;4.584;2022-10-23T14:02:46;25.20;78.80
37782;DHT22;23621;50.878;4.584;2022-10-23T14:05:12;25.20;78.80
37782;DHT22;23621;50.878;4.584;2022-10-23T14:07:39;25.30;78.70
37782;DHT22;23621;50.878;4.584;2022-10-23T14:10:07;25.30;78.60
37782;DHT22;23621;50.878;4.584;2022-10-23T14:12:41;25.30;78.60
37782;DHT22;23621;50.878;4.584;2022-10-23T14:15:09;25.30;78.70
37782;DHT22;23621;50.878;4.584;2022-10-23T14:17:36;25.30;78.60
37782;DHT22;23621;50.878;4.584;2022-10-23T14:20:04;25.30;78.50
37782;DHT22;23621;50.878;4.584;2022-10-23T14:22:32;25.30;78.50
37782;DHT22;23621;50.878;4.584;2022-10-23T14:24:58;25.30;78.30
37782;DHT22;23621;50.878;4.584;2022-10-23T14:27:25;25.30;78.20
37782;DHT22;23621;50.878;4.584;2022-10-23T14:29:52;25.30;78.20
37782;DHT22;23621;50.878;4.584;2022-10-23T14:32:19;25.30;78.10
37782;DHT22;23621;50.878;4.584;2022-10-23T14:34:49;25.30;78.00
37782;DHT22;23621;50.878;4.584;2022-10-23T14:37:16;25.20;77.90
37782;DHT22;23621;50.878;4.584;2022-10-23T14:39:45;25.30;78.10
37782;DHT22;23621;50.878;4.584;2022-10-23T14:42:16;25.30;77.90
37782;DHT22;23621;50.878;4.584;2022-10-23T14:44:43;25.30;77.80
37782;DHT22;23621;50.878;4.584;2022-10-23T14:47:10;25.30;77.80
37782;DHT22;23621;50.878;4.584;2022-10-23T14:49:37;25.20;77.70
37782;DHT22;23621;50.878;4.584;2022-10-23T14:52:06;25.20;77.80
37782;DHT22;23621;50.878;4.584;2022-10-23T14:54:34;25.20;77.80
37782;DHT22;23621;50.878;4.584;2022-10-23T14:57:02;25.20;77.90
37782;DHT22;23621;50.878;4.584;2022-10-23T14:59:29;25.10;77.90
37782;DHT22;23621;50.878;4.584;2022-10-23T15:01:56;25.10;78.00
37782;DHT22;23621;50.878;4.584;2022-10-23T15:04:23;25.10;78.00
37782;DHT22;23621;50.878;4.584;2022-10-23T15:06:51;25.10;78.10
37782;DHT22;23621;50.878;4.584;2022-10-23T15:09:18;25.00;78.20
37782;DHT22;23621;50.878;4.584;2022-10-23T15:11:46;25.00;78.30
37782;DHT22;23621;50.878;4.584;2022-10-23T15:14:13;25.00;78.40
37782;DHT22;23621;50.878;4.584;2022-10-23T15:16:39;25.00;78.50
37782;DHT22;23621;50.878;4.584;2022-10-23T15:19:12;24.90;78.50
37782;DHT22;23621;50.878;4.584;2022-10-23T15:21:45;24.90;78.50
37782;DHT22;23621;50.878;4.584;2022-10-23T15:24:12;24.90;78.60
37782;DHT22;23621;50.878;4.584;2022-10-23T15:26:39;24.90;78.70
37782;DHT22;23621;50.878;4.584;2022-10-23T15:29:09;24.90;78.70
37782;DHT22;23621;50.878;4.584;2022-10-23T15:34:17;24.90;78.80
37782;DHT22;23621;50.878;4.584;2022-10-23T15:36:45;24.90;78.80
37782;DHT22;23621;50.878;4.584;2022-10-23T15:39:14;24.80;78.70
37782;DHT22;23621;50.878;4.584;2022-10-23T15:41:42;24.80;78.70
37782;DHT22;23621;50.878;4.584;2022-10-23T15:44:12;24.80;78.60
37782;DHT22;23621;50.878;4.584;2022-10-23T15:46:39;24.90;78.70
37782;DHT22;23621;50.878;4.584;2022-10-23T15:49:06;24.90;78.70
37782;DHT22;23621;50.878;4.584;2022-10-23T15:51:34;24.90;78.70
37782;DHT22;23621;50.878;4.584;2022-10-23T15:54:07;24.90;78.70
37782;DHT22;23621;50.878;4.584;2022-10-23T15:56:35;24.90;78.60
37782;DHT22;23621;50.878;4.584;2022-10-23T15:59:02;24.90;78.40
37782;DHT22;23621;50.878;4.584;2022-10-23T16:01:29;24.90;78.40
37782;DHT22;23621;50.878;4.584;2022-10-23T16:03:56;24.90;78.40
37782;DHT22;23621;50.878;4.584;2022-10-23T16:06:23;24.90;78.40
37782;DHT22;23621;50.878;4.584;2022-10-23T16:08:50;24.90;78.40
37782;DHT22;23621;50.878;4.584;2022-10-23T16:11:25;24.90;78.40
37782;DHT22;23621;50.878;4.584;2022-10-23T16:13:53;24.90;78.70
37782;DHT22;23621;50.878;4.584;2022-10-23T16:16:21;24.90;78.70
37782;DHT22;23621;50.878;4.584;2022-10-23T16:18:48;24.90;78.80
37782;DHT22;23621;50.878;4.584;2022-10-23T16:21:23;24.90;78.80
37782;DHT22;23621;50.878;4.584;2022-10-23T16:23:52;24.90;79.00
37782;DHT22;23621;50.878;4.584;2022-10-23T16:26:22;24.90;79.00
37782;DHT22;23621;50.878;4.584;2022-10-23T16:28:53;24.80;78.90
37782;DHT22;23621;50.878;4.584;2022-10-23T16:31:21;24.80;78.90
37782;DHT22;23621;50.878;4.584;2022-10-23T16:33:49;24.80;79.00
37782;DHT22;23621;50.878;4.584;2022-10-23T16:36:17;24.70;79.00
37782;DHT22;23621;50.878;4.584;2022-10-23T16:38:43;24.70;79.00
37782;DHT22;23621;50.878;4.584;2022-10-23T16:41:10;24.60;79.00
37782;DHT22;23621;50.878;4.584;2022-10-23T16:43:37;24.60;79.10
37782;DHT22;23621;50.878;4.584;2022-10-23T16:46:13;24.60;79.10
37782;DHT22;23621;50.878;4.584;2022-10-23T16:48:40;24.60;79.10
37782;DHT22;23621;50.878;4.584;2022-10-23T16:51:13;24.60;79.80
37782;DHT22;23621;50.878;4.584;2022-10-23T16:53:41;24.50;79.00
37782;DHT22;23621;50.878;4.584;2022-10-23T16:56:09;24.50;79.00
37782;DHT22;23621;50.878;4.584;2022-10-23T16:58:37;24.50;79.00
37782;DHT22;23621;50.878;4.584;2022-10-23T17:01:13;24.50;78.90
37782;DHT22;23621;50.878;4.584;2022-10-23T17:03:43;24.50;78.90
37782;DHT22;23621;50.878;4.584;2022-10-23T17:06:13;24.50;79.60
37782;DHT22;23621;50.878;4.584;2022-10-23T17:08:40;24.50;78.90
37782;DHT22;23621;50.878;4.584;2022-10-23T17:13:59;24.50;78.60
37782;DHT22;23621;50.878;4.584;2022-10-23T17:16:41;24.50;78.60
37782;DHT22;23621;50.878;4.584;2022-10-23T17:19:12;24.40;78.40
37782;DHT22;23621;50.878;4.584;2022-10-23T17:21:53;24.40;78.40
37782;DHT22;23621;50.878;4.584;2022-10-23T17:24:21;24.40;78.20
37782;DHT22;23621;50.878;4.584;2022-10-23T17:26:48;24.40;78.20
37782;DHT22;23621;50.878;4.584;2022-10-23T17:29:15;24.40;78.10
37782;DHT22;23621;50.878;4.584;2022-10-23T17:31:45;24.30;78.10
37782;DHT22;23621;50.878;4.584;2022-10-23T17:34:14;24.30;78.10
37782;DHT22;23621;50.878;4.584;2022-10-23T17:36:44;24.30;78.10
37782;DHT22;23621;50.878;4.584;2022-10-23T17:39:16;24.20;78.00